createdAt,value
2019-03-23T00:01:52.878Z,53.99
2019-03-23T00:04:25.365Z,53.81
2019-03-23T00:06:55.652Z,53.82
2019-03-23T00:09:26.096Z,53.41
2019-03-23T00:11:56.669Z,53.10
2019-03-23T00:14:27.111Z,53.33
2019-03-23T00:16:57.547Z,53.47
2019-03-23T00:19:28.082Z,53.50
2019-03-23T00:21:58.568Z,53.68
2019-03-23T00:24:29.019Z,53.47
2019-03-23T00:26:59.506Z,53.27
2019-03-23T00:29:29.946Z,53.43
2019-03-23T00:32:00.392Z,53.60
2019-03-23T00:34:31.387Z,53.78
2019-03-23T00:37:01.926Z,54.14
2019-03-23T00:39:33.410Z,54.35
2019-03-23T00:42:03.873Z,54.17
2019-03-23T00:44:34.321Z,54.06
2019-03-23T00:47:04.873Z,54.09
2019-03-23T00:49:35.336Z,54.10
2019-03-23T00:52:05.864Z,54.14
2019-03-23T00:54:36.237Z,54.61
2019-03-23T00:57:06.793Z,54.61
2019-03-23T00:59:37.450Z,54.65
2019-03-23T01:02:07.970Z,54.68
2019-03-23T01:04:39.490Z,54.76
2019-03-23T01:07:10.017Z,54.97
2019-03-23T01:09:40.546Z,55.09
2019-03-23T01:12:11.013Z,55.11
2019-03-23T01:14:41.580Z,55.00
2019-03-23T01:17:12.095Z,54.77
2019-03-23T01:19:42.586Z,54.86
2019-03-23T01:22:13.056Z,55.00
2019-03-23T01:24:43.593Z,55.05
2019-03-23T01:27:14.050Z,55.20
2019-03-23T01:29:44.503Z,54.76
2019-03-23T01:32:15.096Z,54.79
2019-03-23T01:34:45.990Z,55.05
2019-03-23T01:37:16.504Z,55.71
2019-03-23T01:39:46.986Z,55.85
2019-03-23T01:42:17.523Z,55.61
2019-03-23T01:44:47.986Z,55.80
2019-03-23T01:47:18.651Z,55.30
2019-03-23T01:49:49.206Z,55.66
2019-03-23T01:52:19.824Z,55.64
2019-03-23T01:54:50.360Z,55.63
2019-03-23T01:57:20.830Z,55.36
2019-03-23T01:59:52.000Z,55.41
2019-03-23T02:02:22.484Z,55.78
2019-03-23T02:04:54.006Z,56.50
2019-03-23T02:07:24.482Z,56.49
2019-03-23T02:09:54.911Z,56.66
2019-03-23T02:12:25.362Z,56.27
2019-03-23T02:14:56.805Z,55.95
2019-03-23T02:17:27.335Z,55.91
2019-03-23T02:19:57.776Z,55.71
2019-03-23T02:22:28.219Z,55.62
2019-03-23T02:24:58.677Z,55.42
2019-03-23T02:27:29.145Z,55.12
2019-03-23T02:29:59.627Z,55.24
2019-03-23T02:32:30.329Z,55.11
2019-03-23T02:35:01.146Z,55.19
2019-03-23T02:37:31.520Z,55.31
2019-03-23T02:40:02.000Z,55.74
2019-03-23T02:42:32.541Z,55.95
2019-03-23T02:45:03.163Z,55.81
2019-03-23T02:47:33.599Z,55.60
2019-03-23T02:50:04.462Z,55.93
2019-03-23T02:52:34.983Z,56.18
2019-03-23T02:55:06.635Z,56.41
2019-03-23T02:57:37.233Z,56.50
2019-03-23T03:00:08.622Z,56.56
2019-03-23T03:02:39.315Z,56.30
2019-03-23T03:05:10.702Z,56.57
2019-03-23T03:07:43.257Z,56.46
2019-03-23T03:10:16.373Z,56.91
2019-03-23T03:12:46.927Z,57.21
2019-03-23T03:15:17.561Z,57.38
2019-03-23T03:17:48.058Z,57.70
2019-03-23T03:20:18.441Z,57.94
2019-03-23T03:22:49.096Z,58.12
2019-03-23T03:25:19.566Z,58.50
2019-03-23T03:27:50.117Z,58.52
2019-03-23T03:30:20.639Z,58.64
2019-03-23T03:32:51.251Z,58.10
2019-03-23T03:35:21.912Z,58.33
2019-03-23T03:37:56.780Z,58.11
2019-03-23T03:40:24.757Z,58.15
2019-03-23T03:42:55.284Z,58.30
2019-03-23T03:45:26.716Z,58.36
2019-03-23T03:47:57.493Z,58.20
2019-03-23T03:50:27.880Z,58.21
2019-03-23T03:52:58.341Z,58.09
2019-03-23T03:55:28.738Z,58.70
2019-03-23T03:57:59.103Z,58.85
2019-03-23T04:00:29.665Z,58.42
2019-03-23T04:03:00.103Z,58.89
2019-03-23T04:05:30.599Z,58.76
2019-03-23T04:08:11.119Z,58.31
2019-03-23T04:10:34.340Z,57.77
2019-03-23T04:13:04.934Z,57.80
2019-03-23T04:15:35.355Z,58.16
2019-03-23T04:18:05.878Z,58.30
2019-03-23T04:20:36.338Z,58.35
2019-03-23T04:23:06.857Z,57.74
2019-03-23T04:25:37.745Z,57.93
2019-03-23T04:28:08.213Z,58.17
2019-03-23T04:30:38.655Z,58.02
2019-03-23T04:33:09.181Z,58.15
2019-03-23T04:35:39.753Z,57.80
2019-03-23T04:38:21.982Z,58.13
2019-03-23T04:40:42.486Z,57.91
2019-03-23T04:43:12.906Z,57.50
2019-03-23T04:45:43.369Z,57.48
2019-03-23T04:48:13.986Z,56.79
2019-03-23T04:50:44.453Z,56.56
2019-03-23T04:53:14.988Z,57.17
2019-03-23T04:55:45.571Z,56.96
2019-03-23T04:58:16.049Z,56.95
2019-03-23T05:00:46.623Z,57.43
2019-03-23T05:03:17.071Z,57.14
2019-03-23T05:05:47.582Z,57.14
2019-03-23T05:08:18.238Z,57.60
2019-03-23T05:10:48.953Z,57.45
2019-03-23T05:13:20.372Z,57.44
2019-03-23T05:15:50.843Z,57.19
2019-03-23T05:18:21.290Z,57.30
2019-03-23T05:20:51.775Z,56.77
2019-03-23T05:23:22.277Z,56.85
2019-03-23T05:25:52.840Z,57.51
2019-03-23T05:28:23.349Z,57.52
2019-03-23T05:30:53.915Z,57.82
2019-03-23T05:33:24.392Z,57.73
2019-03-23T05:35:54.966Z,57.66
2019-03-23T05:38:25.534Z,57.11
2019-03-23T05:40:55.969Z,57.22
2019-03-23T05:43:26.430Z,57.22
2019-03-23T05:45:56.900Z,57.13
2019-03-23T05:48:27.484Z,56.51
2019-03-23T05:50:58.026Z,56.20
2019-03-23T05:53:28.518Z,56.42
2019-03-23T05:55:58.953Z,56.70
2019-03-23T05:58:29.458Z,56.69
2019-03-23T06:01:00.020Z,56.37
2019-03-23T06:03:30.541Z,56.50
2019-03-23T06:06:01.286Z,56.02
2019-03-23T06:08:34.176Z,55.59
2019-03-23T06:11:04.728Z,55.56
2019-03-23T06:13:35.343Z,55.15
2019-03-23T06:16:05.967Z,55.13
2019-03-23T06:18:36.503Z,54.92
2019-03-23T06:21:07.066Z,54.71
2019-03-23T06:23:37.503Z,54.40
2019-03-23T06:26:08.072Z,53.95
2019-03-23T06:28:38.580Z,54.17
2019-03-23T06:31:09.089Z,53.90
2019-03-23T06:33:39.587Z,53.77
2019-03-23T06:36:10.128Z,53.24
2019-03-23T06:38:40.560Z,52.78
2019-03-23T06:41:11.067Z,52.23
2019-03-23T06:43:41.627Z,52.12
2019-03-23T06:46:12.019Z,51.70
2019-03-23T06:48:42.543Z,51.80
2019-03-23T06:51:13.134Z,51.79
2019-03-23T06:53:43.670Z,51.29
2019-03-23T06:56:14.161Z,50.96
2019-03-23T06:58:45.652Z,50.57
2019-03-23T07:01:16.133Z,50.21
2019-03-23T07:03:46.522Z,49.15
2019-03-23T07:06:17.041Z,48.94
2019-03-23T07:08:48.026Z,48.55
2019-03-23T07:11:18.514Z,47.87
2019-03-23T07:13:49.045Z,46.85
2019-03-23T07:16:19.493Z,47.15
2019-03-23T07:18:50.041Z,46.93
2019-03-23T07:21:20.794Z,46.74
2019-03-23T07:23:51.359Z,46.70
2019-03-23T07:26:21.935Z,46.45
2019-03-23T07:28:52.479Z,45.82
2019-03-23T07:31:22.971Z,45.78
2019-03-23T07:33:53.415Z,45.08
2019-03-23T07:36:23.776Z,45.18
2019-03-23T07:38:54.370Z,44.68
2019-03-23T07:41:24.902Z,44.52
2019-03-23T07:43:55.395Z,44.44
2019-03-23T07:46:25.857Z,43.16
2019-03-23T07:48:56.339Z,43.68
2019-03-23T07:51:26.784Z,43.42
2019-03-23T07:53:57.345Z,43.22
2019-03-23T07:56:27.797Z,42.62
2019-03-23T07:58:58.361Z,41.93
2019-03-23T08:01:28.889Z,41.80
2019-03-23T08:03:59.355Z,41.87
2019-03-23T08:06:29.837Z,41.00
2019-03-23T08:09:00.547Z,40.93
2019-03-23T08:11:32.751Z,39.84
2019-03-23T08:14:03.326Z,39.40
2019-03-23T08:16:33.841Z,38.81
2019-03-23T08:19:04.375Z,37.40
2019-03-23T08:21:34.944Z,37.54
2019-03-23T08:24:05.466Z,37.35
2019-03-23T08:26:36.024Z,37.35
2019-03-23T08:29:06.567Z,38.10
2019-03-23T08:31:37.124Z,37.06
2019-03-23T08:34:07.689Z,37.42
2019-03-23T08:36:38.265Z,36.67
2019-03-23T08:39:09.325Z,36.76
2019-03-23T08:41:39.788Z,36.58
2019-03-23T08:44:10.418Z,37.01
2019-03-23T08:46:40.811Z,36.74
2019-03-23T08:49:11.303Z,37.28
2019-03-23T08:51:41.770Z,36.71
2019-03-23T08:54:12.385Z,36.77
2019-03-23T08:56:42.925Z,35.81
2019-03-23T08:59:13.486Z,35.75
2019-03-23T09:01:43.955Z,35.60
2019-03-23T09:04:15.572Z,36.05
2019-03-23T09:06:46.044Z,35.84
2019-03-23T09:09:16.695Z,36.96
2019-03-23T09:11:47.163Z,37.28
2019-03-23T09:14:17.658Z,36.32
2019-03-23T09:16:48.039Z,36.09
2019-03-23T09:19:18.639Z,35.68
2019-03-23T09:21:49.044Z,35.96
2019-03-23T09:24:19.878Z,35.70
2019-03-23T09:26:50.541Z,35.22
2019-03-23T09:29:20.976Z,35.97
2019-03-23T09:31:51.514Z,35.82
2019-03-23T09:34:22.018Z,34.88
2019-03-23T09:36:52.494Z,34.06
2019-03-23T09:39:23.021Z,33.76
2019-03-23T09:41:53.523Z,33.50
2019-03-23T09:44:24.077Z,34.25
2019-03-23T09:46:54.541Z,34.03
2019-03-23T09:49:25.024Z,33.41
2019-03-23T09:51:55.492Z,33.53
2019-03-23T09:54:26.067Z,33.77
2019-03-23T09:56:56.574Z,33.39
2019-03-23T09:59:27.034Z,33.39
2019-03-23T10:01:57.515Z,32.48
2019-03-23T10:04:28.124Z,32.89
2019-03-23T10:06:58.970Z,32.24
2019-03-23T10:09:29.554Z,32.37
2019-03-23T10:12:00.070Z,32.76
2019-03-23T10:14:31.751Z,32.61
2019-03-23T10:17:02.196Z,32.08
2019-03-23T10:19:32.716Z,31.72
2019-03-23T10:22:06.273Z,32.08
2019-03-23T10:24:36.824Z,32.14
2019-03-23T10:27:07.347Z,32.32
2019-03-23T10:29:38.023Z,32.19
2019-03-23T10:32:08.583Z,31.89
2019-03-23T10:34:39.226Z,30.86
2019-03-23T10:37:09.619Z,31.11
2019-03-23T10:39:41.151Z,31.62
2019-03-23T10:42:11.679Z,31.37
2019-03-23T10:44:42.222Z,31.22
2019-03-23T10:47:12.725Z,31.37
2019-03-23T10:49:43.164Z,30.87
2019-03-23T10:52:13.637Z,31.42
2019-03-23T10:54:44.169Z,31.65
2019-03-23T10:57:14.710Z,32.34
2019-03-23T10:59:45.096Z,31.33
2019-03-23T11:02:15.561Z,32.23
2019-03-23T11:04:46.121Z,31.30
2019-03-23T11:07:16.626Z,30.96
2019-03-23T11:09:47.152Z,30.49
2019-03-23T11:12:17.800Z,29.97
2019-03-23T11:14:48.322Z,29.89
2019-03-23T11:17:18.855Z,30.32
2019-03-23T11:19:49.334Z,31.39
2019-03-23T11:22:19.848Z,30.69
2019-03-23T11:24:50.313Z,30.52
2019-03-23T11:27:20.825Z,31.02
2019-03-23T11:29:51.272Z,30.41
2019-03-23T11:32:22.032Z,30.60
2019-03-23T11:34:52.695Z,29.88
2019-03-23T11:37:23.326Z,31.14
2019-03-23T11:39:53.904Z,30.84
2019-03-23T11:42:24.560Z,29.15
2019-03-23T11:44:55.149Z,28.29
2019-03-23T11:47:25.770Z,28.86
2019-03-23T11:49:56.313Z,29.15
2019-03-23T11:52:26.871Z,29.53
2019-03-23T11:54:57.389Z,29.77
2019-03-23T11:57:27.931Z,28.93
2019-03-23T11:59:58.463Z,29.10
2019-03-23T12:02:28.918Z,29.03
2019-03-23T12:04:59.521Z,29.09
2019-03-23T12:07:30.005Z,28.84
2019-03-23T12:10:00.603Z,30.99
2019-03-23T12:12:31.018Z,29.04
2019-03-23T12:15:01.560Z,29.18
2019-03-23T12:17:32.163Z,28.80
2019-03-23T12:20:02.801Z,31.05
2019-03-23T12:22:34.356Z,29.97
2019-03-23T12:25:05.685Z,29.61
2019-03-23T12:27:36.292Z,29.35
2019-03-23T12:30:07.868Z,28.93
2019-03-23T12:32:38.384Z,29.50
2019-03-23T12:35:09.188Z,28.22
2019-03-23T12:37:39.701Z,28.30
2019-03-23T12:40:11.062Z,29.05
2019-03-23T12:42:41.714Z,28.71
2019-03-23T12:45:12.782Z,28.42
2019-03-23T12:47:43.417Z,27.98
2019-03-23T12:50:16.620Z,28.03
2019-03-23T12:53:08.065Z,28.62
2019-03-23T12:55:38.572Z,27.97
2019-03-23T12:58:09.116Z,27.42
2019-03-23T13:00:39.789Z,26.93
2019-03-23T13:03:10.363Z,27.82
2019-03-23T13:05:40.794Z,27.13
2019-03-23T13:08:11.276Z,27.17
2019-03-23T13:10:41.887Z,27.13
2019-03-23T13:13:12.345Z,26.56
2019-03-23T13:15:42.862Z,27.93
2019-03-23T13:18:13.548Z,27.74
2019-03-23T13:20:44.007Z,26.93
2019-03-23T13:23:14.549Z,27.40
2019-03-23T13:25:45.065Z,26.99
2019-03-23T13:28:15.646Z,27.44
2019-03-23T13:30:46.043Z,27.82
2019-03-23T13:33:16.529Z,26.81
2019-03-23T13:35:47.075Z,26.90
2019-03-23T13:38:17.490Z,28.02
2019-03-23T13:40:48.026Z,26.49
2019-03-23T13:43:18.618Z,27.34
2019-03-23T13:45:49.189Z,25.36
2019-03-23T13:48:19.686Z,26.30
2019-03-23T13:50:50.134Z,26.16
2019-03-23T13:53:21.632Z,26.13
2019-03-23T13:55:52.072Z,25.41
2019-03-23T13:58:22.542Z,24.94
2019-03-23T14:00:53.070Z,24.94
2019-03-23T14:03:23.609Z,25.67
2019-03-23T14:05:54.233Z,25.11
2019-03-23T14:08:24.780Z,24.76
2019-03-23T14:10:55.808Z,24.80
2019-03-23T14:13:27.829Z,25.30
2019-03-23T14:15:58.375Z,24.12
2019-03-23T14:18:28.914Z,25.14
2019-03-23T14:20:59.431Z,24.69
2019-03-23T14:23:30.053Z,24.25
2019-03-23T14:26:00.537Z,25.83
2019-03-23T14:28:31.010Z,25.30
2019-03-23T14:31:01.488Z,25.27
2019-03-23T14:33:31.976Z,26.05
2019-03-23T14:36:02.654Z,25.62
2019-03-23T14:38:33.276Z,25.23
2019-03-23T14:41:04.966Z,26.72
2019-03-23T14:43:35.397Z,25.50
2019-03-23T14:46:05.981Z,25.86
2019-03-23T14:48:36.442Z,26.33
2019-03-23T14:51:06.982Z,26.77
2019-03-23T14:53:37.627Z,25.80
2019-03-23T14:56:08.231Z,25.24
2019-03-23T14:58:38.753Z,24.98
2019-03-23T15:01:09.909Z,24.54
2019-03-23T15:03:40.360Z,24.47
2019-03-23T15:06:10.857Z,24.32
2019-03-23T15:08:41.357Z,25.37
2019-03-23T15:11:11.949Z,25.19
2019-03-23T15:13:42.458Z,25.19
2019-03-23T15:16:12.861Z,26.10
2019-03-23T15:18:43.382Z,24.53
2019-03-23T15:21:13.994Z,25.37
2019-03-23T15:23:44.541Z,25.50
2019-03-23T15:26:15.077Z,25.55
2019-03-23T15:28:45.548Z,24.94
2019-03-23T15:31:16.014Z,25.27
2019-03-23T15:33:46.494Z,25.88
2019-03-23T15:36:16.953Z,25.41
2019-03-23T15:38:47.402Z,26.09
2019-03-23T15:41:17.924Z,26.63
2019-03-23T15:43:49.265Z,26.05
2019-03-23T15:46:19.880Z,25.03
2019-03-23T15:48:50.365Z,24.44
2019-03-23T15:51:21.021Z,24.76
2019-03-23T15:53:51.468Z,24.58
2019-03-23T15:56:21.921Z,24.47
2019-03-23T15:58:52.507Z,24.19
2019-03-23T16:01:23.346Z,24.59
2019-03-23T16:03:53.840Z,24.90
2019-03-23T16:06:24.224Z,24.46
2019-03-23T16:08:54.680Z,25.29
2019-03-23T16:11:25.745Z,26.43
2019-03-23T16:13:56.303Z,26.91
2019-03-23T16:16:26.740Z,27.50
2019-03-23T16:18:57.133Z,27.15
2019-03-23T16:21:28.062Z,28.15
2019-03-23T16:24:00.151Z,27.90
2019-03-23T16:26:32.691Z,28.45
2019-03-23T16:29:03.483Z,28.65
2019-03-23T16:31:34.004Z,28.62
2019-03-23T16:34:04.542Z,28.13
2019-03-23T16:36:35.016Z,28.00
2019-03-23T16:39:07.209Z,27.74
2019-03-23T16:41:37.834Z,28.59
2019-03-23T16:44:08.390Z,28.41
2019-03-23T16:46:39.041Z,28.83
2019-03-23T16:49:09.631Z,29.44
2019-03-23T16:51:40.131Z,29.01
2019-03-23T16:54:10.641Z,29.42
2019-03-23T16:56:41.259Z,29.25
2019-03-23T16:59:11.795Z,29.27
2019-03-23T17:01:42.552Z,29.83
2019-03-23T17:04:13.075Z,29.69
2019-03-23T17:06:46.549Z,29.79
2019-03-23T17:09:18.314Z,30.62
2019-03-23T17:12:07.663Z,30.73
2019-03-23T17:14:38.102Z,31.61
2019-03-23T17:17:08.632Z,31.17
2019-03-23T17:19:39.215Z,31.29
2019-03-23T17:22:09.891Z,31.83
2019-03-23T17:24:40.571Z,31.91
2019-03-23T17:27:11.582Z,33.09
2019-03-23T17:29:42.024Z,33.53
2019-03-23T17:32:12.641Z,34.03
2019-03-23T17:34:43.103Z,33.82
2019-03-23T17:37:13.626Z,34.06
2019-03-23T17:39:44.156Z,34.12
2019-03-23T17:42:14.599Z,35.10
2019-03-23T17:44:46.206Z,35.69
2019-03-23T17:47:16.917Z,35.80
2019-03-23T17:49:47.435Z,35.70
2019-03-23T17:52:17.895Z,35.68
2019-03-23T17:54:48.435Z,36.02
2019-03-23T17:57:19.228Z,35.72
2019-03-23T17:59:49.662Z,36.21
2019-03-23T18:02:20.275Z,36.83
2019-03-23T18:04:51.831Z,37.13
2019-03-23T18:07:22.376Z,37.62
2019-03-23T18:09:52.952Z,37.75
2019-03-23T18:12:24.099Z,37.84
2019-03-23T18:14:55.713Z,38.24
2019-03-23T18:17:26.296Z,38.39
2019-03-23T18:19:56.801Z,38.56
2019-03-23T18:22:27.296Z,38.80
2019-03-23T18:24:57.857Z,39.28
2019-03-23T18:27:28.388Z,40.69
2019-03-23T18:29:59.120Z,40.64
2019-03-23T18:32:30.497Z,40.69
2019-03-23T18:35:03.099Z,40.54
2019-03-23T18:37:33.141Z,40.66
2019-03-23T18:40:05.292Z,41.43
2019-03-23T18:42:35.959Z,41.84
2019-03-23T18:45:07.019Z,41.69
2019-03-23T18:47:37.526Z,42.43
2019-03-23T18:50:08.179Z,42.89
2019-03-23T18:52:40.031Z,43.45
2019-03-23T18:55:10.764Z,44.15
2019-03-23T18:57:41.247Z,44.60
2019-03-23T19:00:14.259Z,44.66
2019-03-23T19:02:44.850Z,44.75
2019-03-23T19:05:15.339Z,44.88
2019-03-23T19:07:45.959Z,45.04
2019-03-23T19:10:16.715Z,44.98
2019-03-23T19:12:47.194Z,45.00
2019-03-23T19:15:17.783Z,45.52
2019-03-23T19:17:48.244Z,45.85
2019-03-23T19:20:18.771Z,45.59
2019-03-23T19:22:49.284Z,46.00
2019-03-23T19:25:19.816Z,46.25
2019-03-23T19:27:50.305Z,46.11
2019-03-23T19:30:21.086Z,46.44
2019-03-23T19:32:51.654Z,47.03
2019-03-23T19:35:22.278Z,48.05
2019-03-23T19:37:53.681Z,48.19
2019-03-23T19:40:26.114Z,47.84
2019-03-23T19:42:59.583Z,47.87
2019-03-23T19:45:30.665Z,47.97
2019-03-23T19:48:01.308Z,47.57
2019-03-23T19:50:32.015Z,47.83
2019-03-23T19:53:02.544Z,48.02
2019-03-23T19:55:33.019Z,48.56
2019-03-23T19:58:03.449Z,48.07
2019-03-23T20:00:34.006Z,48.21
2019-03-23T20:03:05.834Z,47.69
2019-03-23T20:05:36.398Z,48.33
2019-03-23T20:08:06.983Z,48.97
2019-03-23T20:10:37.408Z,49.69
2019-03-23T20:13:08.300Z,49.95
2019-03-23T20:15:38.764Z,49.82
2019-03-23T20:18:09.261Z,49.40
2019-03-23T20:20:39.885Z,49.87
2019-03-23T20:23:10.595Z,49.79
2019-03-23T20:25:41.217Z,48.14
2019-03-23T20:28:11.822Z,49.33
2019-03-23T20:30:42.290Z,50.69
2019-03-23T20:33:19.258Z,51.04
2019-03-23T20:35:45.968Z,51.59
2019-03-23T20:38:16.534Z,51.17
2019-03-23T20:40:47.106Z,51.13
2019-03-23T20:43:17.655Z,51.20
2019-03-23T20:45:48.706Z,51.53
2019-03-23T20:48:20.665Z,51.25
2019-03-23T20:50:51.391Z,50.71
2019-03-23T20:53:22.382Z,50.77
2019-03-23T20:55:52.913Z,51.45
2019-03-23T20:58:23.858Z,51.55
2019-03-23T21:00:54.329Z,52.29
2019-03-23T21:03:24.778Z,52.11
2019-03-23T21:05:55.343Z,52.26
2019-03-23T21:08:25.798Z,51.07
2019-03-23T21:10:56.429Z,50.25
2019-03-23T21:13:27.514Z,51.10
2019-03-23T21:15:58.076Z,51.98
2019-03-23T21:18:28.559Z,52.66
2019-03-23T21:20:59.087Z,53.17
2019-03-23T21:23:29.627Z,53.76
2019-03-23T21:26:00.082Z,53.68
2019-03-23T21:28:30.530Z,53.56
2019-03-23T21:31:00.980Z,53.22
2019-03-23T21:33:32.179Z,52.85
2019-03-23T21:36:03.664Z,53.45
2019-03-23T21:38:34.329Z,53.34
2019-03-23T21:41:04.876Z,52.66
2019-03-23T21:43:35.334Z,53.07
2019-03-23T21:46:05.991Z,53.35
2019-03-23T21:48:36.457Z,53.35
2019-03-23T21:51:06.990Z,52.92
2019-03-23T21:53:38.825Z,52.81
2019-03-23T21:56:10.325Z,52.36
2019-03-23T21:58:40.777Z,51.85
2019-03-23T22:01:12.355Z,51.58
2019-03-23T22:03:42.916Z,51.46
2019-03-23T22:06:13.847Z,51.82
2019-03-23T22:08:45.241Z,51.51
2019-03-23T22:11:15.696Z,53.73
2019-03-23T22:13:46.673Z,53.09
2019-03-23T22:16:17.142Z,52.72
2019-03-23T22:18:47.743Z,52.38
2019-03-23T22:21:18.258Z,53.90
2019-03-23T22:23:48.716Z,54.11
2019-03-23T22:26:19.232Z,53.50
2019-03-23T22:28:49.672Z,53.04
2019-03-23T22:31:20.182Z,53.02
2019-03-23T22:33:50.719Z,52.79
2019-03-23T22:36:21.152Z,52.76
2019-03-23T22:38:51.725Z,52.89
2019-03-23T22:41:22.281Z,54.04
2019-03-23T22:43:52.742Z,54.08
2019-03-23T22:46:23.253Z,53.80
2019-03-23T22:48:53.689Z,54.29
2019-03-23T22:51:24.219Z,53.89
2019-03-23T22:53:55.471Z,54.08
2019-03-23T22:56:26.060Z,55.18
2019-03-23T22:58:56.522Z,55.82
2019-03-23T23:01:27.055Z,55.15
2019-03-23T23:03:57.638Z,55.08
2019-03-23T23:06:28.221Z,54.79
2019-03-23T23:08:58.623Z,51.68
2019-03-23T23:11:29.069Z,49.97
2019-03-23T23:14:01.255Z,49.03
2019-03-23T23:16:32.232Z,48.72
2019-03-23T23:19:02.705Z,48.39
2019-03-23T23:21:33.153Z,48.30
2019-03-23T23:24:03.828Z,51.19
2019-03-23T23:26:34.313Z,54.01
2019-03-23T23:29:04.814Z,55.75
2019-03-23T23:31:35.365Z,56.52
2019-03-23T23:34:06.123Z,56.85
2019-03-23T23:36:36.673Z,57.15
2019-03-23T23:39:08.321Z,57.23
2019-03-23T23:41:38.874Z,57.23
2019-03-23T23:44:09.302Z,57.52
2019-03-23T23:46:40.856Z,57.49
2019-03-23T23:49:11.355Z,57.62
2019-03-23T23:51:49.782Z,57.59
2019-03-23T23:54:14.016Z,57.27
2019-03-23T23:56:44.611Z,57.91
2019-03-23T23:59:16.155Z,58.37
